createdAt,value
2022-10-03T00:01:05.022Z,10.40
2022-10-03T00:03:36.975Z,10.20
2022-10-03T00:06:22.210Z,10.20
2022-10-03T00:08:48.737Z,10.20
2022-10-03T00:11:15.220Z,10.30
2022-10-03T00:13:41.819Z,10.30
2022-10-03T00:16:13.999Z,10.30
2022-10-03T00:19:04.641Z,10.30
2022-10-03T00:21:50.155Z,10.20
2022-10-03T00:24:22.575Z,10.30
2022-10-03T00:26:52.219Z,10.30
2022-10-03T00:29:24.581Z,10.20
2022-10-03T00:32:02.873Z,10.30
2022-10-03T00:34:47.762Z,10.10
2022-10-03T00:37:23.210Z,10.10
2022-10-03T00:39:52.644Z,10.10
2022-10-03T00:42:22.167Z,10.10
2022-10-03T00:45:07.572Z,10.00
2022-10-03T00:48:03.627Z,10.00
2022-10-03T00:50:30.145Z,10.00
2022-10-03T00:53:02.521Z,10.00
2022-10-03T00:55:32.121Z,10.00
2022-10-03T00:58:01.649Z,10.00
2022-10-03T01:00:29.585Z,10.00
2022-10-03T01:02:56.074Z,10.00
2022-10-03T01:05:41.308Z,10.00
2022-10-03T01:08:23.315Z,10.00
2022-10-03T01:10:52.944Z,10.00
2022-10-03T01:13:19.657Z,9.90
2022-10-03T01:15:59.813Z,9.90
2022-10-03T01:18:43.805Z,9.90
2022-10-03T01:21:25.428Z,9.90
2022-10-03T01:24:07.527Z,9.90
2022-10-03T01:26:40.059Z,9.80
2022-10-03T01:29:27.890Z,9.80
2022-10-03T01:32:01.830Z,9.80
2022-10-03T01:34:38.315Z,9.80
2022-10-03T01:37:08.722Z,9.80
2022-10-03T01:39:42.056Z,9.80
2022-10-03T01:42:13.042Z,9.70
2022-10-03T01:44:40.535Z,9.60
2022-10-03T01:47:24.714Z,9.60
2022-10-03T01:49:56.454Z,9.60
2022-10-03T01:52:22.948Z,9.60
2022-10-03T01:54:58.974Z,9.60
2022-10-03T01:57:25.519Z,9.50
2022-10-03T02:00:01.417Z,9.50
2022-10-03T02:02:36.742Z,9.40
2022-10-03T02:05:03.742Z,9.40
2022-10-03T02:07:30.267Z,9.40
2022-10-03T02:09:59.913Z,9.40
2022-10-03T02:12:50.374Z,9.40
2022-10-03T02:15:49.248Z,9.40
2022-10-03T02:18:34.801Z,9.30
2022-10-03T02:21:13.968Z,9.30
2022-10-03T02:23:44.093Z,9.30
2022-10-03T02:26:38.169Z,9.30
2022-10-03T02:29:13.726Z,9.30
2022-10-03T02:32:01.213Z,9.30
2022-10-03T02:34:27.748Z,9.30
2022-10-03T02:37:03.288Z,9.30
2022-10-03T02:39:32.907Z,9.20
2022-10-03T02:41:59.512Z,9.20
2022-10-03T02:44:30.846Z,9.20
2022-10-03T02:47:12.754Z,9.20
2022-10-03T02:49:54.343Z,9.20
2022-10-03T02:52:39.776Z,9.20
2022-10-03T02:55:06.325Z,9.70
2022-10-03T02:57:51.797Z,9.10
2022-10-03T03:00:20.971Z,9.20
2022-10-03T03:03:01.176Z,9.20
2022-10-03T03:05:46.324Z,9.20
2022-10-03T03:08:12.814Z,9.30
2022-10-03T03:10:58.309Z,9.30
2022-10-03T03:13:43.603Z,9.30
2022-10-03T03:16:10.349Z,9.30
2022-10-03T03:18:36.892Z,9.30
2022-10-03T03:21:03.933Z,9.30
2022-10-03T03:23:41.009Z,9.40
2022-10-03T03:26:28.059Z,9.40
2022-10-03T03:29:09.438Z,9.40
2022-10-03T03:31:56.120Z,9.40
2022-10-03T03:34:25.970Z,9.40
2022-10-03T03:37:02.006Z,9.50
2022-10-03T03:39:28.497Z,9.50
2022-10-03T03:42:12.274Z,9.50
2022-10-03T03:44:52.553Z,9.60
2022-10-03T03:47:43.151Z,9.60
2022-10-03T03:50:22.111Z,9.60
2022-10-03T03:53:05.942Z,9.70
2022-10-03T03:55:51.183Z,9.60
2022-10-03T03:58:26.883Z,9.70
2022-10-03T04:01:03.401Z,9.60
2022-10-03T04:03:47.082Z,9.60
2022-10-03T04:06:13.584Z,9.50
2022-10-03T04:08:47.166Z,9.50
2022-10-03T04:11:13.705Z,9.50
2022-10-03T04:14:07.881Z,9.40
2022-10-03T04:16:56.251Z,9.40
2022-10-03T04:19:41.696Z,9.30
2022-10-03T04:22:29.936Z,9.30
2022-10-03T04:24:59.210Z,9.30
2022-10-03T04:27:28.938Z,9.30
2022-10-03T04:29:56.862Z,9.30
2022-10-03T04:33:02.018Z,9.20
2022-10-03T04:35:34.840Z,9.20
2022-10-03T04:38:01.359Z,9.10
2022-10-03T04:40:36.904Z,9.10
2022-10-03T04:43:04.145Z,9.10
2022-10-03T04:45:41.100Z,9.00
2022-10-03T04:48:21.787Z,9.00
2022-10-03T04:51:07.362Z,9.00
2022-10-03T04:53:52.266Z,9.00
2022-10-03T04:56:25.026Z,8.90
2022-10-03T04:58:55.418Z,9.00
2022-10-03T05:01:27.752Z,8.90
2022-10-03T05:03:54.491Z,8.90
2022-10-03T05:06:29.871Z,8.90
2022-10-03T05:09:15.205Z,8.80
2022-10-03T05:12:14.840Z,8.70
2022-10-03T05:14:41.456Z,8.70
2022-10-03T05:17:31.611Z,8.70
2022-10-03T05:20:10.855Z,8.60
2022-10-03T05:22:37.457Z,8.60
2022-10-03T05:25:16.244Z,8.60
2022-10-03T05:27:53.947Z,8.50
2022-10-03T05:30:26.690Z,8.50
2022-10-03T05:33:16.276Z,8.50
2022-10-03T05:35:50.924Z,8.50
2022-10-03T05:38:26.951Z,8.50
2022-10-03T05:40:59.377Z,8.50
2022-10-03T05:43:27.084Z,8.40
2022-10-03T05:46:03.676Z,8.50
2022-10-03T05:48:48.375Z,8.50
2022-10-03T05:51:21.087Z,8.50
2022-10-03T05:53:56.898Z,8.50
2022-10-03T05:56:42.175Z,8.50
2022-10-03T05:59:12.143Z,8.60
2022-10-03T06:01:44.794Z,8.70
2022-10-03T06:04:19.089Z,8.70
2022-10-03T06:06:56.803Z,8.70
2022-10-03T06:09:35.609Z,8.80
2022-10-03T06:12:05.175Z,8.80
2022-10-03T06:14:35.163Z,8.90
2022-10-03T06:17:11.056Z,9.00
2022-10-03T06:19:52.848Z,9.00
2022-10-03T06:22:22.479Z,9.10
2022-10-03T06:25:12.572Z,9.20
2022-10-03T06:27:39.068Z,9.30
2022-10-03T06:30:05.790Z,9.40
2022-10-03T06:32:51.143Z,9.50
2022-10-03T06:35:17.632Z,9.60
2022-10-03T06:38:03.070Z,9.70
2022-10-03T06:40:43.984Z,9.80
2022-10-03T06:43:31.535Z,10.00
2022-10-03T06:46:10.048Z,10.10
2022-10-03T06:48:42.786Z,10.30
2022-10-03T06:51:09.261Z,10.40
2022-10-03T06:54:06.036Z,10.60
2022-10-03T06:56:49.744Z,10.70
2022-10-03T06:59:34.322Z,11.00
2022-10-03T07:02:19.049Z,11.30
2022-10-03T07:05:04.528Z,11.60
2022-10-03T07:07:31.028Z,11.80
2022-10-03T07:10:01.317Z,12.10
2022-10-03T07:12:44.805Z,12.40
2022-10-03T07:15:18.932Z,12.70
2022-10-03T07:18:04.303Z,13.00
2022-10-03T07:20:46.165Z,13.10
2022-10-03T07:23:31.662Z,13.40
2022-10-03T07:26:17.030Z,13.50
2022-10-03T07:28:56.751Z,13.50
2022-10-03T07:31:32.211Z,13.60
2022-10-03T07:34:17.776Z,14.00
2022-10-03T07:37:03.042Z,14.10
2022-10-03T07:39:44.734Z,14.40
2022-10-03T07:42:25.655Z,15.00
2022-10-03T07:45:08.273Z,15.60
2022-10-03T07:47:40.908Z,15.70
2022-10-03T07:50:30.163Z,16.10
2022-10-03T07:53:15.356Z,16.50
2022-10-03T07:56:07.245Z,17.30
2022-10-03T07:58:52.059Z,17.80
2022-10-03T08:01:37.640Z,18.50
2022-10-03T08:04:10.120Z,18.80
2022-10-03T08:06:45.450Z,19.00
2022-10-03T08:09:11.951Z,19.30
2022-10-03T08:11:48.201Z,19.90
2022-10-03T08:14:19.220Z,20.40
2022-10-03T08:16:52.523Z,21.20
2022-10-03T08:19:37.630Z,21.90
2022-10-03T08:22:19.523Z,22.30
2022-10-03T08:25:06.412Z,22.70
2022-10-03T08:27:56.074Z,22.20
2022-10-03T08:30:23.829Z,22.00
2022-10-03T08:33:08.630Z,22.10
2022-10-03T08:35:54.169Z,22.20
2022-10-03T08:38:27.765Z,22.20
2022-10-03T08:41:13.295Z,22.40
2022-10-03T08:43:58.366Z,21.90
2022-10-03T08:47:02.487Z,21.00
2022-10-03T08:49:41.670Z,20.20
2022-10-03T08:52:21.306Z,21.10
2022-10-03T08:55:08.128Z,21.70
2022-10-03T08:57:53.505Z,21.60
2022-10-03T09:00:21.633Z,21.90
2022-10-03T09:03:31.881Z,22.00
2022-10-03T09:05:50.334Z,22.50
2022-10-03T09:08:16.822Z,23.40
2022-10-03T09:10:55.370Z,23.30
2022-10-03T09:13:25.744Z,23.40
2022-10-03T09:16:23.382Z,22.90
2022-10-03T09:18:55.917Z,22.70
2022-10-03T09:21:37.262Z,21.90
2022-10-03T09:24:22.943Z,21.50
2022-10-03T09:27:08.297Z,20.80
2022-10-03T09:29:47.010Z,20.10
2022-10-03T09:32:14.069Z,19.60
2022-10-03T09:35:07.170Z,18.90
2022-10-03T09:37:33.978Z,18.50
2022-10-03T09:40:39.235Z,18.60
2022-10-03T09:43:24.002Z,18.80
2022-10-03T09:46:05.506Z,20.50
2022-10-03T09:48:34.833Z,21.70
2022-10-03T09:51:21.104Z,22.60
2022-10-03T09:53:56.445Z,22.40
2022-10-03T09:56:26.035Z,22.70
2022-10-03T09:59:05.439Z,22.60
2022-10-03T10:01:47.321Z,21.90
2022-10-03T10:04:52.991Z,21.20
2022-10-03T10:07:24.572Z,20.90
2022-10-03T10:10:17.321Z,20.60
2022-10-03T10:12:52.894Z,20.20
2022-10-03T10:15:38.193Z,20.20
2022-10-03T10:18:07.689Z,21.20
2022-10-03T10:20:53.037Z,21.20
2022-10-03T10:23:26.337Z,20.70
2022-10-03T10:25:58.933Z,20.40
2022-10-03T10:28:45.747Z,20.70
2022-10-03T10:31:15.176Z,20.80
2022-10-03T10:34:00.383Z,21.90
2022-10-03T10:36:46.896Z,22.30
2022-10-03T10:39:31.637Z,22.00
2022-10-03T10:42:01.258Z,21.30
2022-10-03T10:44:46.062Z,20.80
2022-10-03T10:47:27.988Z,21.80
2022-10-03T10:49:57.222Z,23.90
2022-10-03T10:52:42.392Z,25.20
2022-10-03T10:55:18.302Z,25.00
2022-10-03T10:58:10.118Z,24.40
2022-10-03T11:00:39.684Z,23.40
2022-10-03T11:03:18.492Z,22.80
2022-10-03T11:05:48.374Z,22.40
2022-10-03T11:08:14.867Z,21.60
2022-10-03T11:10:41.473Z,21.20
2022-10-03T11:13:35.535Z,20.90
2022-10-03T11:16:21.348Z,20.90
2022-10-03T11:19:05.529Z,20.80
2022-10-03T11:21:44.649Z,21.20
2022-10-03T11:24:11.191Z,21.80
2022-10-03T11:26:56.581Z,22.00
2022-10-03T11:29:42.744Z,22.10
2022-10-03T11:32:21.109Z,21.70
2022-10-03T11:35:07.156Z,21.50
2022-10-03T11:37:40.304Z,21.10
2022-10-03T11:40:28.057Z,20.50
2022-10-03T11:43:20.502Z,20.20
2022-10-03T11:45:50.526Z,20.80
2022-10-03T11:48:18.635Z,22.00
2022-10-03T11:50:48.128Z,22.20
2022-10-03T11:53:17.441Z,22.30
2022-10-03T11:55:47.267Z,22.80
2022-10-03T11:58:20.637Z,22.70
2022-10-03T12:00:51.742Z,22.00
2022-10-03T12:03:26.425Z,21.40
2022-10-03T12:06:17.491Z,21.00
2022-10-03T12:08:57.657Z,20.80
2022-10-03T12:11:36.585Z,20.50
2022-10-03T12:14:11.901Z,20.00
2022-10-03T12:16:53.414Z,19.90
2022-10-03T12:19:20.758Z,19.60
2022-10-03T12:21:50.257Z,19.10
2022-10-03T12:24:25.322Z,18.80
2022-10-03T12:27:09.966Z,18.70
2022-10-03T12:29:38.998Z,18.70
2022-10-03T12:32:23.646Z,18.60
2022-10-03T12:34:59.438Z,18.80
2022-10-03T12:37:32.622Z,18.90
2022-10-03T12:40:18.008Z,18.80
2022-10-03T12:42:48.253Z,18.80
2022-10-03T12:45:31.216Z,19.30
2022-10-03T12:48:01.364Z,19.50
2022-10-03T12:50:28.881Z,19.30
2022-10-03T12:53:01.282Z,19.40
2022-10-03T12:55:36.415Z,19.40
2022-10-03T12:58:05.971Z,19.30
2022-10-03T13:00:35.578Z,19.00
2022-10-03T13:03:02.781Z,18.90
2022-10-03T13:05:32.180Z,19.10
2022-10-03T13:08:03.301Z,19.20
2022-10-03T13:10:36.978Z,19.20
2022-10-03T13:13:13.436Z,19.30
2022-10-03T13:15:49.015Z,19.40
2022-10-03T13:18:21.459Z,19.50
2022-10-03T13:20:53.617Z,19.50
2022-10-03T13:23:29.645Z,19.20
2022-10-03T13:26:11.830Z,19.20
2022-10-03T13:28:46.474Z,19.00
2022-10-03T13:31:22.302Z,18.70
2022-10-03T13:33:53.679Z,18.80
2022-10-03T13:36:26.532Z,18.60
2022-10-03T13:39:00.406Z,18.70
2022-10-03T13:41:32.330Z,18.70
2022-10-03T13:44:09.966Z,18.70
2022-10-03T13:46:46.680Z,18.80
2022-10-03T13:49:18.718Z,18.80
2022-10-03T13:51:57.038Z,19.00
2022-10-03T13:54:46.162Z,19.10
2022-10-03T13:57:20.577Z,19.20
2022-10-03T13:59:50.597Z,19.20
2022-10-03T14:02:35.893Z,19.20
2022-10-03T14:05:31.885Z,19.00
2022-10-03T14:08:04.289Z,19.00
2022-10-03T14:10:33.878Z,18.80
2022-10-03T14:13:12.163Z,18.80
2022-10-03T14:15:48.311Z,18.70
2022-10-03T14:18:37.947Z,18.70
2022-10-03T14:21:23.401Z,18.50
2022-10-03T14:23:55.610Z,18.40
2022-10-03T14:26:40.564Z,18.30
2022-10-03T14:29:16.158Z,18.40
2022-10-03T14:31:57.283Z,18.50
2022-10-03T14:34:35.447Z,18.40
2022-10-03T14:37:08.270Z,18.40
2022-10-03T14:39:37.995Z,18.40
2022-10-03T14:42:07.601Z,18.30
2022-10-03T14:44:39.366Z,18.20
2022-10-03T14:47:17.134Z,18.20
2022-10-03T14:49:56.412Z,18.00
2022-10-03T14:52:37.283Z,17.90
2022-10-03T14:55:11.769Z,17.80
2022-10-03T14:58:05.949Z,17.70
2022-10-03T15:00:43.499Z,17.60
2022-10-03T15:03:16.234Z,17.50
2022-10-03T15:05:58.803Z,17.30
2022-10-03T15:08:30.363Z,17.30
2022-10-03T15:10:57.087Z,17.10
2022-10-03T15:13:25.043Z,17.20
2022-10-03T15:15:52.364Z,17.10
2022-10-03T15:18:21.484Z,17.00
2022-10-03T15:20:49.072Z,16.90
2022-10-03T15:23:33.222Z,16.90
2022-10-03T15:26:00.214Z,16.90
2022-10-03T15:28:29.311Z,16.90
2022-10-03T15:30:57.878Z,16.90
2022-10-03T15:33:34.643Z,16.80
2022-10-03T15:36:14.509Z,16.70
2022-10-03T15:38:42.306Z,16.60
2022-10-03T15:41:13.562Z,16.40
2022-10-03T15:43:58.670Z,16.40
2022-10-03T15:46:31.037Z,16.30
2022-10-03T15:48:57.993Z,16.30
2022-10-03T15:51:26.980Z,16.20
2022-10-03T15:53:57.051Z,16.20
2022-10-03T15:56:31.406Z,16.10
2022-10-03T15:59:08.706Z,16.00
2022-10-03T16:01:40.784Z,16.00
2022-10-03T16:04:21.479Z,15.90
2022-10-03T16:06:53.136Z,15.90
2022-10-03T16:09:26.602Z,15.80
2022-10-03T16:12:20.100Z,15.80
2022-10-03T16:14:52.186Z,15.70
2022-10-03T16:17:25.413Z,15.60
2022-10-03T16:19:56.231Z,15.60
2022-10-03T16:22:30.929Z,15.50
2022-10-03T16:25:01.505Z,15.40
2022-10-03T16:27:29.944Z,15.30
2022-10-03T16:30:11.937Z,15.30
2022-10-03T16:32:42.789Z,15.20
2022-10-03T16:35:14.135Z,15.20
2022-10-03T16:37:41.809Z,15.20
2022-10-03T16:40:18.154Z,15.10
2022-10-03T16:42:45.516Z,15.00
2022-10-03T16:45:19.033Z,15.00
2022-10-03T16:47:47.258Z,14.90
2022-10-03T16:50:26.755Z,14.90
2022-10-03T16:52:57.345Z,14.80
2022-10-03T16:55:39.033Z,14.70
2022-10-03T16:58:05.509Z,14.70
2022-10-03T17:00:41.766Z,14.60
2022-10-03T17:03:16.882Z,14.60
2022-10-03T17:05:45.415Z,14.60
2022-10-03T17:08:40.303Z,14.60
2022-10-03T17:11:03.518Z,14.50
2022-10-03T17:13:42.736Z,14.40
2022-10-03T17:16:13.240Z,14.50
2022-10-03T17:18:50.531Z,14.40
2022-10-03T17:21:28.790Z,14.30
2022-10-03T17:24:07.444Z,14.30
2022-10-03T17:26:37.570Z,14.30
2022-10-03T17:29:10.201Z,14.20
2022-10-03T17:31:44.316Z,14.30
2022-10-03T17:34:19.878Z,14.20
2022-10-03T17:36:52.641Z,14.10
2022-10-03T17:39:19.133Z,14.10
2022-10-03T17:41:53.660Z,14.00
2022-10-03T17:44:33.783Z,14.00
2022-10-03T17:47:00.404Z,14.00
2022-10-03T17:49:31.537Z,13.90
2022-10-03T17:51:58.274Z,13.80
2022-10-03T17:54:35.714Z,13.80
2022-10-03T17:57:05.932Z,14.90
2022-10-03T17:59:38.690Z,16.00
2022-10-03T18:02:15.467Z,16.30
2022-10-03T18:04:44.355Z,16.50
2022-10-03T18:07:24.992Z,16.70
2022-10-03T18:09:52.840Z,16.90
2022-10-03T18:12:39.864Z,16.90
2022-10-03T18:15:06.398Z,17.00
2022-10-03T18:17:42.246Z,17.00
2022-10-03T18:20:26.112Z,16.90
2022-10-03T18:22:59.255Z,16.80
2022-10-03T18:26:15.000Z,16.70
2022-10-03T18:28:40.025Z,16.20
2022-10-03T18:31:08.776Z,15.40
2022-10-03T18:33:50.169Z,15.00
2022-10-03T18:36:27.644Z,14.70
2022-10-03T18:38:57.413Z,14.30
2022-10-03T18:41:24.621Z,14.00
2022-10-03T18:43:59.679Z,13.80
2022-10-03T18:46:30.371Z,13.60
2022-10-03T18:51:57.947Z,13.30
2022-10-03T18:54:24.451Z,13.10
2022-10-03T18:57:01.996Z,13.00
2022-10-03T18:59:47.545Z,12.90
2022-10-03T19:02:26.660Z,12.80
2022-10-03T19:04:59.626Z,12.70
2022-10-03T19:07:29.652Z,12.60
2022-10-03T19:10:01.987Z,12.50
2022-10-03T19:12:33.553Z,12.40
2022-10-03T19:15:10.416Z,12.30
2022-10-03T19:17:55.467Z,12.10
2022-10-03T19:20:27.241Z,12.10
2022-10-03T19:23:05.702Z,12.00
2022-10-03T19:25:33.606Z,11.90
2022-10-03T19:28:01.989Z,11.80
2022-10-03T19:30:30.423Z,11.80
2022-10-03T19:32:57.071Z,11.70
2022-10-03T19:35:24.487Z,11.60
2022-10-03T19:37:56.000Z,11.50
2022-10-03T19:40:28.748Z,11.40
2022-10-03T19:42:59.734Z,11.40
2022-10-03T19:45:26.412Z,11.30
2022-10-03T19:47:58.350Z,10.90
2022-10-03T19:50:29.377Z,11.10
2022-10-03T19:52:56.123Z,11.10
2022-10-03T19:55:33.838Z,11.00
2022-10-03T19:58:11.382Z,11.00
2022-10-03T20:00:38.891Z,10.90
2022-10-03T20:03:07.450Z,10.90
2022-10-03T20:05:37.592Z,10.80
2022-10-03T20:08:16.434Z,10.70
2022-10-03T20:10:42.963Z,10.70
2022-10-03T20:13:10.109Z,10.60
2022-10-03T20:15:45.000Z,10.50
2022-10-03T20:18:25.742Z,10.50
2022-10-03T20:20:56.347Z,10.50
2022-10-03T20:23:24.493Z,10.40
2022-10-03T20:25:53.800Z,10.40
2022-10-03T20:28:23.394Z,10.30
2022-10-03T20:30:51.349Z,10.20
2022-10-03T20:33:19.539Z,10.20
2022-10-03T20:36:00.493Z,10.10
2022-10-03T20:38:27.038Z,10.10
2022-10-03T20:41:15.612Z,10.10
2022-10-03T20:43:44.763Z,10.00
2022-10-03T20:46:15.783Z,9.90
2022-10-03T20:48:59.122Z,9.90
2022-10-03T20:51:37.062Z,9.80
2022-10-03T20:54:03.996Z,9.80
2022-10-03T20:56:37.707Z,9.70
2022-10-03T20:59:08.248Z,9.70
2022-10-03T21:01:35.422Z,9.70
2022-10-03T21:04:16.234Z,9.60
2022-10-03T21:06:53.992Z,9.50
2022-10-03T21:09:22.075Z,9.50
2022-10-03T21:11:54.551Z,9.40
2022-10-03T21:14:25.557Z,9.40
2022-10-03T21:16:52.760Z,9.50
2022-10-03T21:19:31.374Z,9.40
2022-10-03T21:22:00.146Z,9.50
2022-10-03T21:24:29.018Z,9.50
2022-10-03T21:26:58.361Z,9.40
2022-10-03T21:29:24.877Z,9.40
2022-10-03T21:32:07.937Z,9.40
2022-10-03T21:35:13.036Z,9.30
2022-10-03T21:37:45.045Z,9.30
2022-10-03T21:40:11.629Z,9.30
2022-10-03T21:43:10.362Z,9.20
2022-10-03T21:45:54.546Z,9.10
2022-10-03T21:48:36.684Z,9.10
2022-10-03T21:51:13.835Z,9.00
2022-10-03T21:53:46.463Z,8.60
2022-10-03T21:56:31.817Z,8.90
2022-10-03T21:59:17.170Z,8.90
2022-10-03T22:01:49.822Z,8.80
2022-10-03T22:04:19.126Z,8.80
2022-10-03T22:06:49.656Z,8.70
2022-10-03T22:09:16.350Z,8.60
2022-10-03T22:11:45.897Z,8.60
2022-10-03T22:14:30.914Z,8.60
2022-10-03T22:17:14.754Z,8.60
2022-10-03T22:19:50.946Z,8.50
2022-10-03T22:22:23.543Z,8.40
2022-10-03T22:25:05.439Z,8.40
2022-10-03T22:27:36.296Z,8.40
2022-10-03T22:30:07.471Z,8.40
2022-10-03T22:32:40.949Z,8.50
2022-10-03T22:35:16.238Z,8.40
2022-10-03T22:37:42.858Z,8.70
2022-10-03T22:40:09.771Z,8.30
2022-10-03T22:42:40.740Z,8.30
2022-10-03T22:45:08.008Z,8.20
2022-10-03T22:47:35.630Z,8.20
2022-10-03T22:50:05.946Z,8.10
2022-10-03T22:52:33.921Z,8.10
2022-10-03T22:55:01.612Z,8.10
2022-10-03T22:57:29.513Z,8.10
2022-10-03T23:00:09.837Z,8.00
2022-10-03T23:02:38.079Z,8.00
2022-10-03T23:05:16.027Z,8.00
2022-10-03T23:07:45.442Z,7.90
2022-10-03T23:10:30.733Z,7.90
2022-10-03T23:13:03.924Z,8.00
2022-10-03T23:15:32.060Z,8.00
2022-10-03T23:18:22.171Z,8.00
2022-10-03T23:20:58.642Z,8.00
2022-10-03T23:23:28.999Z,7.90
2022-10-03T23:26:16.462Z,7.90
2022-10-03T23:29:00.031Z,7.90
2022-10-03T23:31:45.587Z,7.90
2022-10-03T23:34:12.250Z,7.80
2022-10-03T23:36:58.942Z,7.90
2022-10-03T23:39:32.896Z,7.80
2022-10-03T23:42:00.973Z,7.70
2022-10-03T23:44:49.449Z,7.70
2022-10-03T23:47:18.871Z,7.70
2022-10-03T23:49:47.058Z,7.60
2022-10-03T23:52:20.282Z,7.60
2022-10-03T23:54:47.982Z,7.60
2022-10-03T23:57:16.241Z,7.60
2022-10-03T23:59:43.061Z,7.50
